createdAt,value
2022-09-01T00:00:14.643Z,100925.88
2022-09-01T00:03:02.046Z,100918.52
2022-09-01T00:05:33.423Z,100918.98
2022-09-01T00:08:02.009Z,100917.59
2022-09-01T00:10:30.470Z,100918.05
2022-09-01T00:12:59.755Z,100923.23
2022-09-01T00:15:28.466Z,100920.48
2022-09-01T00:17:57.090Z,100920.95
2022-09-01T00:20:25.944Z,100915.91
2022-09-01T00:22:55.727Z,100915.92
2022-09-01T00:25:25.069Z,100917.15
2022-09-01T00:27:59.564Z,100918.39
2022-09-01T00:30:28.989Z,100920.98
2022-09-01T00:32:57.738Z,100921.61
2022-09-01T00:35:26.580Z,100913.29
2022-09-01T00:37:55.256Z,100915.68
2022-09-01T00:40:26.364Z,100915.52
2022-09-01T00:42:55.252Z,100916.61
2022-09-01T00:45:24.092Z,100917.33
2022-09-01T00:47:53.913Z,100910.45
2022-09-01T00:50:22.808Z,100911.23
2022-09-01T00:52:55.635Z,100911.48
2022-09-01T00:55:37.646Z,100908.58
2022-09-01T00:58:20.013Z,100912.60
2022-09-01T01:00:52.268Z,100906.45
2022-09-01T01:03:21.214Z,100901.42
2022-09-01T01:05:58.379Z,100902.80
2022-09-01T01:08:34.400Z,100898.73
2022-09-01T01:11:20.647Z,100897.10
2022-09-01T01:13:57.816Z,100895.34
2022-09-01T01:16:29.728Z,100902.56
2022-09-01T01:18:59.186Z,100902.60
2022-09-01T01:21:57.218Z,100902.84
2022-09-01T01:24:34.934Z,100900.08
2022-09-01T01:27:05.254Z,100899.77
2022-09-01T01:29:38.327Z,100904.65
2022-09-01T01:32:13.309Z,100906.61
2022-09-01T01:34:46.864Z,100908.59
2022-09-01T01:37:17.431Z,100912.63
2022-09-01T01:39:46.827Z,100914.34
2022-09-01T01:42:15.980Z,100921.61
2022-09-01T01:44:44.614Z,100916.17
2022-09-01T01:47:13.968Z,100912.58
2022-09-01T01:49:45.220Z,100920.48
2022-09-01T01:52:17.575Z,100922.79
2022-09-01T01:54:47.659Z,100927.34
2022-09-01T01:57:18.028Z,100925.80
2022-09-01T01:59:47.310Z,100924.95
2022-09-01T02:02:16.261Z,100926.92
2022-09-01T02:04:44.974Z,100932.45
2022-09-01T02:07:14.238Z,100931.59
2022-09-01T02:09:44.434Z,100927.77
2022-09-01T02:12:14.980Z,100928.52
2022-09-01T02:14:44.999Z,100936.96
2022-09-01T02:17:13.670Z,100936.44
2022-09-01T02:19:43.210Z,100942.27
2022-09-01T02:22:11.976Z,100941.98
2022-09-01T02:24:46.680Z,100943.02
2022-09-01T02:27:19.119Z,100941.80
2022-09-01T02:29:51.348Z,100942.09
2022-09-01T02:32:22.298Z,100941.08
2022-09-01T02:34:53.956Z,100938.48
2022-09-01T02:37:25.570Z,100939.30
2022-09-01T02:39:57.946Z,100938.65
2022-09-01T02:42:29.911Z,100941.05
2022-09-01T02:44:59.072Z,100938.96
2022-09-01T02:47:32.168Z,100941.45
2022-09-01T02:50:03.761Z,100944.95
2022-09-01T02:52:37.745Z,100938.48
2022-09-01T02:55:09.311Z,100945.96
2022-09-01T02:57:38.680Z,100950.87
2022-09-01T03:00:21.046Z,100953.48
2022-09-01T03:02:56.930Z,100958.16
2022-09-01T03:05:29.975Z,100959.64
2022-09-01T03:08:02.930Z,100961.98
2022-09-01T03:10:41.789Z,100958.67
2022-09-01T03:13:15.759Z,100956.36
2022-09-01T03:15:45.350Z,100952.02
2022-09-01T03:18:15.448Z,100954.91
2022-09-01T03:20:46.705Z,100952.86
2022-09-01T03:23:19.562Z,100954.72
2022-09-01T03:25:49.305Z,100954.77
2022-09-01T03:28:20.150Z,100959.52
2022-09-01T03:30:54.279Z,100962.71
2022-09-01T03:33:25.600Z,100959.42
2022-09-01T03:35:57.241Z,100959.43
2022-09-01T03:38:26.763Z,100958.52
2022-09-01T03:41:02.320Z,100952.48
2022-09-01T03:43:35.574Z,100955.95
2022-09-01T03:46:10.439Z,100953.20
2022-09-01T03:48:39.897Z,100957.52
2022-09-01T03:51:09.809Z,100954.58
2022-09-01T03:53:39.945Z,100958.30
2022-09-01T03:56:09.230Z,100956.27
2022-09-01T03:58:39.612Z,100961.91
2022-09-01T04:01:13.872Z,100962.32
2022-09-01T04:03:45.855Z,100954.55
2022-09-01T04:06:18.736Z,100954.34
2022-09-01T04:08:54.564Z,100954.34
2022-09-01T04:11:28.570Z,100953.16
2022-09-01T04:14:03.184Z,100952.10
2022-09-01T04:16:54.730Z,100950.41
2022-09-01T04:19:30.799Z,100947.52
2022-09-01T04:22:03.643Z,100942.89
2022-09-01T04:24:44.468Z,100944.10
2022-09-01T04:27:15.969Z,100944.69
2022-09-01T04:29:46.765Z,100942.65
2022-09-01T04:32:16.126Z,100941.91
2022-09-01T04:34:50.749Z,100946.13
2022-09-01T04:37:22.255Z,100948.55
2022-09-01T04:40:00.492Z,100956.03
2022-09-01T04:42:32.794Z,100955.51
2022-09-01T04:45:10.779Z,100960.27
2022-09-01T04:47:43.234Z,100960.27
2022-09-01T04:50:23.889Z,100957.61
2022-09-01T04:53:12.491Z,100955.88
2022-09-01T04:55:50.175Z,100957.67
2022-09-01T04:58:22.597Z,100955.63
2022-09-01T05:00:56.149Z,100955.09
2022-09-01T05:03:25.704Z,100952.81
2022-09-01T05:05:58.581Z,100953.92
2022-09-01T05:08:27.183Z,100953.50
2022-09-01T05:10:57.700Z,100957.22
2022-09-01T05:13:40.880Z,100958.76
2022-09-01T05:16:13.330Z,100956.98
2022-09-01T05:18:49.176Z,100960.58
2022-09-01T05:21:24.878Z,100961.02
2022-09-01T05:23:54.426Z,100959.73
2022-09-01T05:26:28.684Z,100959.36
2022-09-01T05:29:02.328Z,100958.06
2022-09-01T05:31:35.254Z,100952.27
2022-09-01T05:34:08.175Z,100955.45
2022-09-01T05:36:42.459Z,100955.31
2022-09-01T05:39:15.141Z,100957.74
2022-09-01T05:41:46.117Z,100956.20
2022-09-01T05:44:15.982Z,100956.38
2022-09-01T05:46:45.083Z,100952.50
2022-09-01T05:49:16.476Z,100950.18
2022-09-01T05:51:59.215Z,100955.13
2022-09-01T05:54:30.211Z,100956.72
2022-09-01T05:57:23.416Z,100957.20
2022-09-01T05:59:54.357Z,100956.98
2022-09-01T06:02:27.429Z,100958.79
2022-09-01T06:04:57.686Z,100963.94
2022-09-01T06:07:31.007Z,100961.30
2022-09-01T06:10:01.562Z,100966.56
2022-09-01T06:12:30.586Z,100962.41
2022-09-01T06:15:00.399Z,100961.14
2022-09-01T06:17:31.956Z,100962.45
2022-09-01T06:20:10.967Z,100958.17
2022-09-01T06:22:42.298Z,100959.33
2022-09-01T06:25:11.331Z,100960.52
2022-09-01T06:27:44.610Z,100964.48
2022-09-01T06:30:23.762Z,100964.50
2022-09-01T06:33:02.348Z,100965.85
2022-09-01T06:35:32.666Z,100971.31
2022-09-01T06:38:03.275Z,100974.00
2022-09-01T06:40:43.596Z,100974.96
2022-09-01T06:43:16.469Z,100972.95
2022-09-01T06:45:55.071Z,100976.48
2022-09-01T06:48:31.024Z,100977.73
2022-09-01T06:51:16.030Z,100986.20
2022-09-01T06:54:00.162Z,100987.81
2022-09-01T06:56:34.071Z,100987.14
2022-09-01T06:59:15.755Z,100986.20
2022-09-01T07:01:49.879Z,100976.45
2022-09-01T07:04:21.747Z,100976.45
2022-09-01T07:07:53.274Z,100971.66
2022-09-01T07:10:18.209Z,100972.52
2022-09-01T07:13:05.397Z,100973.29
2022-09-01T07:18:37.269Z,100973.11
2022-09-01T07:21:36.133Z,100975.88
2022-09-01T07:24:13.912Z,100970.30
2022-09-01T07:27:07.628Z,100974.10
2022-09-01T07:29:36.697Z,100969.09
2022-09-01T07:34:55.948Z,100969.00
2022-09-01T07:43:32.640Z,100971.85
2022-09-01T07:49:29.501Z,100968.90
2022-09-01T07:51:48.381Z,100966.14
2022-09-01T07:54:17.461Z,100965.48
2022-09-01T07:56:46.072Z,100960.39
2022-09-01T07:59:15.677Z,100960.40
2022-09-01T08:01:52.776Z,100960.23
2022-09-01T08:04:24.668Z,100955.73
2022-09-01T08:06:55.042Z,100959.14
2022-09-01T08:09:37.174Z,100959.54
2022-09-01T08:12:09.290Z,100960.30
2022-09-01T08:14:47.009Z,100960.42
2022-09-01T08:17:18.060Z,100955.23
2022-09-01T08:20:09.504Z,100952.70
2022-09-01T08:23:28.426Z,100949.31
2022-09-01T08:25:57.158Z,100947.75
2022-09-01T08:28:27.209Z,100954.09
2022-09-01T08:30:57.130Z,100949.59
2022-09-01T08:33:27.645Z,100947.35
2022-09-01T08:35:57.464Z,100950.84
2022-09-01T08:38:29.129Z,100952.01
2022-09-01T08:41:00.320Z,100950.63
2022-09-01T08:44:08.354Z,100950.42
2022-09-01T08:46:42.516Z,100945.09
2022-09-01T08:49:25.640Z,100942.66
2022-09-01T08:52:30.047Z,100941.89
2022-09-01T08:55:26.147Z,100942.11
2022-09-01T08:57:59.724Z,100941.66
2022-09-01T09:00:43.753Z,100936.95
2022-09-01T09:03:22.881Z,100939.91
2022-09-01T09:06:04.236Z,100944.94
2022-09-01T09:08:52.496Z,100942.42
2022-09-01T09:11:46.060Z,100939.64
2022-09-01T09:14:35.670Z,100940.36
2022-09-01T09:17:05.510Z,100937.80
2022-09-01T09:19:39.884Z,100937.13
2022-09-01T09:22:15.308Z,100933.20
2022-09-01T09:25:00.578Z,100931.92
2022-09-01T09:27:40.010Z,100930.55
2022-09-01T09:30:27.883Z,100929.99
2022-09-01T09:35:57.706Z,100923.63
2022-09-01T09:38:29.871Z,100930.14
2022-09-01T09:41:17.872Z,100932.77
2022-09-01T09:43:59.330Z,100932.69
2022-09-01T09:46:38.157Z,100926.89
2022-09-01T09:49:34.824Z,100926.96
2022-09-01T09:52:05.320Z,100922.38
2022-09-01T09:54:36.331Z,100919.24
2022-09-01T09:57:17.777Z,100918.44
2022-09-01T10:00:25.799Z,100915.81
2022-09-01T10:03:04.640Z,100913.40
2022-09-01T10:05:53.479Z,100909.04
2022-09-01T10:08:28.431Z,100910.20
2022-09-01T10:10:58.822Z,100911.78
2022-09-01T10:13:33.111Z,100910.70
2022-09-01T10:16:13.548Z,100911.07
2022-09-01T10:18:51.344Z,100910.05
2022-09-01T10:21:33.125Z,100909.20
2022-09-01T10:24:17.697Z,100908.68
2022-09-01T10:26:56.583Z,100908.04
2022-09-01T10:29:34.848Z,100907.22
2022-09-01T10:32:31.533Z,100906.21
2022-09-01T10:35:02.043Z,100905.17
2022-09-01T10:37:32.302Z,100905.89
2022-09-01T10:40:26.079Z,100903.95
2022-09-01T10:43:25.825Z,100902.04
2022-09-01T10:45:58.816Z,100903.88
2022-09-01T10:48:48.387Z,100905.55
2022-09-01T10:51:28.862Z,100904.27
2022-09-01T10:54:51.636Z,100902.24
2022-09-01T11:01:11.382Z,100898.58
2022-09-01T11:03:56.512Z,100900.00
2022-09-01T11:07:12.560Z,100902.09
2022-09-01T11:09:45.181Z,100902.89
2022-09-01T11:12:44.665Z,100901.79
2022-09-01T11:15:17.063Z,100894.86
2022-09-01T11:17:51.575Z,100892.72
2022-09-01T11:20:25.240Z,100891.09
2022-09-01T11:23:24.937Z,100885.23
2022-09-01T11:26:19.282Z,100885.48
2022-09-01T11:28:48.821Z,100887.05
2022-09-01T11:31:29.228Z,100879.58
2022-09-01T11:34:15.172Z,100879.53
2022-09-01T11:36:46.012Z,100881.83
2022-09-01T11:39:14.641Z,100886.58
2022-09-01T11:42:14.827Z,100879.77
2022-09-01T11:44:58.341Z,100886.83
2022-09-01T11:47:36.032Z,100880.63
2022-09-01T11:50:23.307Z,100878.30
2022-09-01T11:53:05.936Z,100874.95
2022-09-01T11:55:49.153Z,100870.25
2022-09-01T11:58:27.995Z,100864.70
2022-09-01T12:01:12.037Z,100871.73
2022-09-01T12:03:41.549Z,100867.71
2022-09-01T12:06:18.935Z,100862.30
2022-09-01T12:08:58.723Z,100861.61
2022-09-01T12:11:34.729Z,100867.02
2022-09-01T12:14:11.353Z,100860.86
2022-09-01T12:16:42.734Z,100858.04
2022-09-01T12:19:33.046Z,100851.31
2022-09-01T12:22:18.863Z,100851.66
2022-09-01T12:24:54.231Z,100846.38
2022-09-01T12:27:23.583Z,100844.39
2022-09-01T12:29:52.357Z,100836.48
2022-09-01T12:32:23.265Z,100834.08
2022-09-01T12:35:11.061Z,100833.74
2022-09-01T12:37:40.307Z,100829.90
2022-09-01T12:40:35.530Z,100829.73
2022-09-01T12:43:04.063Z,100827.84
2022-09-01T12:45:48.054Z,100830.58
2022-09-01T12:48:38.508Z,100832.00
2022-09-01T12:51:30.957Z,100834.95
2022-09-01T12:54:04.784Z,100834.75
2022-09-01T12:56:39.418Z,100834.63
2022-09-01T12:59:17.869Z,100840.23
2022-09-01T13:01:48.834Z,100838.50
2022-09-01T13:04:34.375Z,100838.50
2022-09-01T13:07:09.005Z,100844.71
2022-09-01T13:09:38.200Z,100844.05
2022-09-01T13:12:21.069Z,100844.11
2022-09-01T13:14:49.812Z,100844.98
2022-09-01T13:17:19.668Z,100843.34
2022-09-01T13:19:48.265Z,100843.44
2022-09-01T13:22:16.809Z,100840.14
2022-09-01T13:24:45.404Z,100843.55
2022-09-01T13:27:22.945Z,100838.84
2022-09-01T13:29:52.555Z,100837.88
2022-09-01T13:33:20.237Z,100838.94
2022-09-01T13:35:51.214Z,100842.24
2022-09-01T13:38:20.930Z,100851.14
2022-09-01T13:40:51.632Z,100849.48
2022-09-01T13:43:23.535Z,100851.52
2022-09-01T13:45:52.376Z,100853.28
2022-09-01T13:48:22.450Z,100856.30
2022-09-01T13:53:42.065Z,100853.84
2022-09-01T13:56:10.765Z,100853.59
2022-09-01T13:58:39.470Z,100857.90
2022-09-01T14:01:08.199Z,100868.83
2022-09-01T14:03:37.942Z,100871.59
2022-09-01T14:06:07.140Z,100872.16
2022-09-01T14:08:35.701Z,100875.03
2022-09-01T14:11:04.394Z,100873.16
2022-09-01T14:13:34.889Z,100874.38
2022-09-01T14:16:10.804Z,100872.70
2022-09-01T14:18:39.749Z,100872.94
2022-09-01T14:21:16.273Z,100874.69
2022-09-01T14:23:46.406Z,100880.27
2022-09-01T14:26:16.627Z,100884.20
2022-09-01T14:28:47.793Z,100884.13
2022-09-01T14:31:19.104Z,100888.89
2022-09-01T14:33:49.362Z,100888.81
2022-09-01T14:36:25.138Z,100888.00
2022-09-01T14:38:54.395Z,100890.35
2022-09-01T14:41:26.840Z,100886.52
2022-09-01T14:44:03.280Z,100892.17
2022-09-01T14:46:34.654Z,100888.65
2022-09-01T14:49:04.669Z,100886.71
2022-09-01T14:54:23.420Z,100890.72
2022-09-01T14:59:42.057Z,100891.87
2022-09-01T15:02:10.807Z,100886.33
2022-09-01T15:04:39.869Z,100889.39
2022-09-01T15:07:09.251Z,100889.56
2022-09-01T15:09:37.929Z,100886.97
2022-09-01T15:12:07.065Z,100890.10
2022-09-01T15:14:37.682Z,100896.11
2022-09-01T15:17:07.196Z,100891.01
2022-09-01T15:19:35.869Z,100890.03
2022-09-01T15:22:04.773Z,100892.67
2022-09-01T15:24:33.341Z,100896.41
2022-09-01T15:27:01.912Z,100899.77
2022-09-01T15:29:34.275Z,100900.27
2022-09-01T15:32:03.797Z,100904.08
2022-09-01T15:34:32.272Z,100906.75
2022-09-01T15:37:00.852Z,100905.86
2022-09-01T15:39:34.940Z,100909.02
2022-09-01T15:42:08.548Z,100908.82
2022-09-01T15:44:37.439Z,100906.56
2022-09-01T15:47:06.100Z,100908.17
2022-09-01T15:49:34.714Z,100913.20
2022-09-01T15:52:03.574Z,100909.65
2022-09-01T15:54:38.405Z,100909.77
2022-09-01T15:57:08.880Z,100915.53
2022-09-01T15:59:40.319Z,100911.85
2022-09-01T16:02:10.763Z,100918.09
2022-09-01T16:04:40.361Z,100919.86
2022-09-01T16:07:08.966Z,100921.94
2022-09-01T16:09:37.689Z,100922.23
2022-09-01T16:12:08.298Z,100922.76
2022-09-01T16:14:37.802Z,100926.06
2022-09-01T16:17:34.471Z,100926.39
2022-09-01T16:20:13.702Z,100921.70
2022-09-01T16:23:26.393Z,100924.72
2022-09-01T16:25:59.385Z,100927.86
2022-09-01T16:28:35.996Z,100928.04
2022-09-01T16:31:22.079Z,100936.17
2022-09-01T16:33:56.362Z,100933.99
2022-09-01T16:36:49.413Z,100936.65
2022-09-01T16:39:32.645Z,100933.88
2022-09-01T16:42:28.201Z,100942.48
2022-09-01T16:45:15.289Z,100943.70
2022-09-01T16:48:33.419Z,100949.08
2022-09-01T16:51:22.235Z,100945.61
2022-09-01T16:54:26.748Z,100947.62
2022-09-01T16:57:23.087Z,100955.42
2022-09-01T16:59:59.507Z,100962.19
2022-09-01T17:02:31.269Z,100964.63
2022-09-01T17:05:24.692Z,100972.44
2022-09-01T17:08:21.870Z,100975.83
2022-09-01T17:11:09.990Z,100984.63
2022-09-01T17:13:51.515Z,100988.38
2022-09-01T17:16:33.410Z,100985.95
2022-09-01T17:19:06.059Z,100986.31
2022-09-01T17:21:49.328Z,100995.25
2022-09-01T17:24:54.433Z,100995.73
2022-09-01T17:28:00.488Z,100999.92
2022-09-01T17:30:32.403Z,101007.06
2022-09-01T17:33:18.523Z,101007.91
2022-09-01T17:36:01.641Z,101005.29
2022-09-01T17:39:31.874Z,101009.33
2022-09-01T17:42:37.787Z,101009.55
2022-09-01T17:45:29.641Z,101012.67
2022-09-01T17:48:18.533Z,101021.25
2022-09-01T17:51:02.312Z,101028.11
2022-09-01T17:53:36.700Z,101029.41
2022-09-01T17:56:50.038Z,101027.78
2022-09-01T17:59:43.278Z,101026.21
2022-09-01T18:02:33.028Z,101030.41
2022-09-01T18:05:24.490Z,101028.42
2022-09-01T18:08:09.173Z,101027.79
2022-09-01T18:10:49.703Z,101030.73
2022-09-01T18:13:59.513Z,101034.51
2022-09-01T18:16:34.225Z,101036.27
2022-09-01T18:19:14.292Z,101034.14
2022-09-01T18:22:05.266Z,101033.40
2022-09-01T18:24:39.600Z,101039.27
2022-09-01T18:27:09.468Z,101040.78
2022-09-01T18:29:48.031Z,101042.51
2022-09-01T18:32:41.457Z,101036.64
2022-09-01T18:35:38.478Z,101044.71
2022-09-01T18:38:24.968Z,101049.83
2022-09-01T18:41:07.353Z,101054.34
2022-09-01T18:43:38.874Z,101058.94
2022-09-01T18:46:32.745Z,101060.38
2022-09-01T18:49:30.795Z,101066.70
2022-09-01T18:52:25.313Z,101069.23
2022-09-01T18:55:06.194Z,101070.07
2022-09-01T18:57:41.942Z,101077.58
2022-09-01T19:00:21.036Z,101075.31
2022-09-01T19:03:20.271Z,101078.54
2022-09-01T19:06:14.318Z,101080.42
2022-09-01T19:08:52.119Z,101082.54
2022-09-01T19:11:26.828Z,101081.29
2022-09-01T19:14:25.513Z,101082.02
2022-09-01T19:17:36.666Z,101080.08
2022-09-01T19:20:18.807Z,101080.04
2022-09-01T19:22:58.846Z,101081.73
2022-09-01T19:25:37.135Z,101084.69
2022-09-01T19:28:21.393Z,101087.89
2022-09-01T19:31:24.028Z,101094.13
2022-09-01T19:34:50.888Z,101093.08
2022-09-01T19:37:20.325Z,101094.15
2022-09-01T19:39:54.113Z,101094.98
2022-09-01T19:42:57.025Z,101101.88
2022-09-01T19:45:46.251Z,101105.69
2022-09-01T19:48:43.473Z,101105.09
2022-09-01T19:51:33.871Z,101104.21
2022-09-01T19:54:16.193Z,101110.31
2022-09-01T19:57:08.976Z,101111.02
2022-09-01T20:00:19.777Z,101108.48
2022-09-01T20:03:24.353Z,101106.64
2022-09-01T20:09:23.409Z,101107.68
2022-09-01T20:12:08.397Z,101109.23
2022-09-01T20:15:21.988Z,101112.73
2022-09-01T20:18:09.545Z,101113.45
2022-09-01T20:20:45.460Z,101114.56
2022-09-01T20:23:45.259Z,101115.55
2022-09-01T20:26:29.158Z,101116.08
2022-09-01T20:29:30.571Z,101121.98
2022-09-01T20:32:04.162Z,101126.05
2022-09-01T20:34:45.147Z,101130.17
2022-09-01T20:37:33.643Z,101130.20
2022-09-01T20:40:31.043Z,101133.06
2022-09-01T20:43:19.430Z,101137.61
2022-09-01T20:45:48.188Z,101138.03
2022-09-01T20:48:24.219Z,101135.17
2022-09-01T20:51:20.626Z,101136.90
2022-09-01T20:54:01.403Z,101137.98
2022-09-01T20:57:10.316Z,101140.04
2022-09-01T21:00:04.772Z,101141.80
2022-09-01T21:03:06.377Z,101137.19
2022-09-01T21:06:05.518Z,101137.48
2022-09-01T21:09:12.538Z,101145.06
2022-09-01T21:12:30.430Z,101143.63
2022-09-01T21:15:14.282Z,101147.35
2022-09-01T21:17:59.173Z,101150.26
2022-09-01T21:21:08.439Z,101151.27
2022-09-01T21:23:37.017Z,101150.58
2022-09-01T21:26:05.799Z,101151.98
2022-09-01T21:28:34.675Z,101158.35
2022-09-01T21:31:03.578Z,101154.43
2022-09-01T21:33:33.292Z,101155.49
2022-09-01T21:36:02.605Z,101154.16
2022-09-01T21:38:31.204Z,101158.25
2022-09-01T21:41:01.172Z,101154.92
2022-09-01T21:43:37.294Z,101159.98
2022-09-01T21:46:08.217Z,101161.95
2022-09-01T21:48:37.308Z,101162.73
2022-09-01T21:51:06.026Z,101161.56
2022-09-01T21:53:34.641Z,101165.30
2022-09-01T21:56:03.453Z,101167.73
2022-09-01T21:58:33.028Z,101167.63
2022-09-01T22:01:02.573Z,101170.88
2022-09-01T22:03:31.198Z,101172.75
2022-09-01T22:05:59.865Z,101171.37
2022-09-01T22:08:28.460Z,101178.46
2022-09-01T22:10:57.062Z,101178.07
2022-09-01T22:13:25.836Z,101179.16
2022-09-01T22:15:55.085Z,101176.30
2022-09-01T22:18:23.687Z,101177.19
2022-09-01T22:21:02.502Z,101179.02
2022-09-01T22:23:31.152Z,101181.07
2022-09-01T22:25:59.792Z,101182.23
2022-09-01T22:28:28.708Z,101180.38
2022-09-01T22:30:57.601Z,101184.73
2022-09-01T22:33:26.398Z,101186.20
2022-09-01T22:35:57.402Z,101189.75
2022-09-01T22:38:26.040Z,101192.57
2022-09-01T22:40:59.400Z,101189.77
2022-09-01T22:43:30.028Z,101190.75
2022-09-01T22:45:59.755Z,101193.36
2022-09-01T22:48:29.198Z,101189.56
2022-09-01T22:50:57.856Z,101187.50
2022-09-01T22:53:26.551Z,101190.80
2022-09-01T22:55:55.269Z,101194.63
2022-09-01T22:58:24.026Z,101189.39
2022-09-01T23:00:56.221Z,101190.80
2022-09-01T23:03:24.784Z,101188.08
2022-09-01T23:06:09.229Z,101185.21
2022-09-01T23:08:39.639Z,101185.11
2022-09-01T23:11:09.675Z,101190.09
2022-09-01T23:13:39.243Z,101191.24
2022-09-01T23:16:14.465Z,101192.04
2022-09-01T23:18:46.106Z,101192.98
2022-09-01T23:21:20.087Z,101195.64
2022-09-01T23:23:48.950Z,101198.45
2022-09-01T23:26:32.668Z,101201.95
2022-09-01T23:29:02.281Z,101198.44
2022-09-01T23:31:34.780Z,101200.34
2022-09-01T23:34:06.242Z,101195.13
2022-09-01T23:36:36.670Z,101198.04
2022-09-01T23:39:06.557Z,101195.83
2022-09-01T23:41:37.834Z,101195.64
2022-09-01T23:44:09.725Z,101197.05
2022-09-01T23:46:47.003Z,101201.73
2022-09-01T23:49:18.414Z,101196.65
2022-09-01T23:51:48.381Z,101198.64
2022-09-01T23:54:16.969Z,101200.40
2022-09-01T23:56:46.180Z,101197.70
2022-09-01T23:59:14.941Z,101202.84
